メインページ
METAR-TAF:

METAR-TAF

空港 :

ハマド国際空港

ドーハ, カタール

緯度: 25-16-23N, 経度: 51-36-29E, 海抜: 4m

現時点の気象観測

当レポートは15分前の20:00(UTC)に作成
北/北西の風 12kt
気温 21°C
湿度 60%
気圧 1019 hPa
視程10km以上
1,500メートル以下は雲なし、積乱雲なし

METAR: OTHH 112000Z 33012KT CAVOK 21/13 Q1019 NOSIG

時間: 23:15 (20:15 UTC)

予報

当レポートは3時間44分前の16:31(UTC)に作成
予報は11日の 18時(UTC)から 12日の 24時(UTC)まで有効
北/北西の風 13kt
視程10km以上
1,500メートル以下は雲なし、積乱雲なし

TAF: OTHH 111631Z 1118/1224 34013KT CAVOK

4,000以上の空港の気象観測と天気予報(METAR報とTAF報)

利用可能な観測所は地図上に黄色い丸と赤い丸で示す。

丸の上にカーソルを重ねると観測所名を参照できる。

次にクリックすると気象観測と天気予報を参照できる。

マップの切り替え:黒色「×」印の緑ボタンをクリックして拡大、「-」印の緑ボタンをクリックして縮小、緑色の三角印をクリックして隣りの地図に切り替え


METAR-TAF: